Cherry Point, North Carolina
Current Conditions -  °F | °C
As of 8:54 PM on Saturday 20 Dec 2014 (Local Time) from KNKT Reporting Station
Few Clouds Few Clouds  
Wind Chill: 35°   Ceiling: Unl
Heat Index: 40°   Visibility: 10mi
Dew Point: 36°   Wind: 7mph
Humidity: 86%   Direction: 20°NNE
Pressure: 30.29"   Gusts: NA
Location:  34.9°N, 76.88°W
Report Text: KNKT 210154Z 02006KT 10SM FEW060 04/02 A3029 RMK AO2 SLP252 T00440022 $
Loading
Personal Weather Stations






























Interactive Weather Map New forecast layout! Learn more

10-Day Weather Forecast

Advertisements
Track Severe Weather on mobile